Time;durP1;ratioP1;P1;durP2;ratioP2;P2;SDS_P1;SDS_P2;PMS_P1;PMS_P2;Temp;Humidity;BMP_temperature;BMP_pressure;BME280_temperature;BME280_humidity;BME280_pressure;Samples;Min_cycle;Max_cycle;Signal;HPM_P1;HPM_P2
2024/01/17 00:00:16;;;;;;;;;;;-1.70;99.90;;;;;;7333032;19;108392;-68
2024/01/17 00:02:43;;;;;;;;;;;-1.70;99.90;;;;;;7332438;19;109744;-68
2024/01/17 00:05:10;;;;;;;;;;;-1.70;99.90;;;;;;7332589;19;109154;-68
2024/01/17 00:07:37;;;;;;;;;;;-1.80;99.90;;;;;;7330081;19;110145;-68
2024/01/17 00:10:05;;;;;;;;;;;-1.80;99.90;;;;;;7331679;19;110189;-68
2024/01/17 00:12:32;;;;;;;;;;;-1.80;99.90;;;;;;7331291;19;109227;-68
2024/01/17 00:14:59;;;;;;;;;;;-1.80;99.90;;;;;;7333896;19;111847;-75
2024/01/17 00:17:27;;;;;;;;;;;-1.80;99.90;;;;;;7329618;19;109171;-70
2024/01/17 00:19:54;;;;;;;;;;;-1.90;99.90;;;;;;7330444;19;111416;-70
2024/01/17 00:22:21;;;;;;;;;;;-2.00;99.90;;;;;;7329144;19;110367;-70
2024/01/17 00:24:51;;;;;;;;;;;-2.00;99.90;;;;;;7330646;19;109185;-72
2024/01/17 00:27:18;;;;;;;;;;;-2.10;99.90;;;;;;7329257;19;108703;-70
2024/01/17 00:29:45;;;;;;;;;;;-2.10;99.90;;;;;;7330810;19;108877;-68
2024/01/17 00:32:13;;;;;;;;;;;-2.10;99.90;;;;;;7336329;19;109608;-68
2024/01/17 00:34:40;;;;;;;;;;;-2.10;99.90;;;;;;7337597;19;108849;-69
2024/01/17 00:37:09;;;;;;;;;;;-2.10;99.90;;;;;;7341884;19;111714;-68
2024/01/17 00:39:36;;;;;;;;;;;-2.10;99.90;;;;;;7339967;19;108480;-68
2024/01/17 00:42:03;;;;;;;;;;;-2.10;99.90;;;;;;7338962;19;109172;-68
2024/01/17 00:44:30;;;;;;;;;;;-2.10;99.90;;;;;;7334200;19;109952;-72
2024/01/17 00:46:57;;;;;;;;;;;-2.10;99.90;;;;;;7339861;19;108890;-68
2024/01/17 00:49:24;;;;;;;;;;;-2.10;99.90;;;;;;7336490;19;109665;-68
2024/01/17 00:51:51;;;;;;;;;;;-2.00;99.90;;;;;;7338420;19;109650;-69
2024/01/17 00:54:18;;;;;;;;;;;-2.00;99.90;;;;;;7337432;19;109038;-69
2024/01/17 00:56:45;;;;;;;;;;;-2.00;99.90;;;;;;7337749;19;109133;-69
2024/01/17 00:59:13;;;;;;;;;;;-2.00;99.90;;;;;;7344528;19;109818;-68
2024/01/17 01:01:40;;;;;;;;;;;-2.00;99.90;;;;;;7339580;19;109544;-69
2024/01/17 01:04:10;;;;;;;;;;;-2.00;99.90;;;;;;7336936;19;109723;-69
2024/01/17 01:06:37;;;;;;;;;;;-2.10;99.90;;;;;;7337101;19;109061;-68
2024/01/17 01:09:04;;;;;;;;;;;-2.00;99.90;;;;;;7336839;19;110792;-68
2024/01/17 01:11:34;;;;;;;;;;;-2.00;99.90;;;;;;7336740;19;109279;-69
2024/01/17 01:14:02;;;;;;;;;;;-2.00;99.90;;;;;;7335721;19;109123;-69
2024/01/17 01:16:29;;;;;;;;;;;-2.00;99.90;;;;;;7336095;19;110282;-70
2024/01/17 01:18:56;;;;;;;;;;;-2.00;99.90;;;;;;7336901;19;109465;-69
2024/01/17 01:21:24;;;;;;;;;;;-1.90;99.90;;;;;;7340108;19;110306;-69
2024/01/17 01:23:51;;;;;;;;;;;-1.90;99.90;;;;;;7336287;19;108368;-69
2024/01/17 01:26:18;;;;;;;;;;;-1.90;99.90;;;;;;7340194;19;108699;-69
2024/01/17 01:28:45;;;;;;;;;;;-1.90;99.90;;;;;;7334971;19;109446;-69
2024/01/17 01:31:12;;;;;;;;;;;-1.90;99.90;;;;;;7338005;19;109567;-69
2024/01/17 01:33:39;;;;;;;;;;;-1.90;99.90;;;;;;7331777;19;109314;-69
2024/01/17 01:36:07;;;;;;;;;;;-1.90;99.90;;;;;;7329281;19;109466;-69
2024/01/17 01:38:34;;;;;;;;;;;-1.90;99.90;;;;;;7336558;19;108820;-69
2024/01/17 01:41:01;;;;;;;;;;;-1.90;99.90;;;;;;7338633;19;110742;-69
2024/01/17 01:43:29;;;;;;;;;;;-1.90;99.90;;;;;;7337404;19;109323;-69
2024/01/17 01:46:20;;;;;;;;;;;-1.90;99.90;;;;;;7334400;19;109792;-69
2024/01/17 01:48:48;;;;;;;;;;;-1.90;99.90;;;;;;7336625;19;109136;-69
2024/01/17 01:51:16;;;;;;;;;;;-1.90;99.90;;;;;;7337236;19;108655;-69
2024/01/17 01:53:45;;;;;;;;;;;-1.90;99.90;;;;;;7334004;19;109627;-72
2024/01/17 01:56:13;;;;;;;;;;;-1.90;99.90;;;;;;7336948;19;111043;-67
2024/01/17 01:58:41;;;;;;;;;;;-1.90;99.90;;;;;;7336084;19;108374;-67
2024/01/17 02:01:10;;;;;;;;;;;-1.80;99.90;;;;;;7336183;19;110704;-67
2024/01/17 02:03:38;;;;;;;;;;;-1.80;99.90;;;;;;7340541;19;111754;-67
2024/01/17 02:06:06;;;;;;;;;;;-1.90;99.90;;;;;;7334547;19;112828;-67
2024/01/17 02:08:34;;;;;;;;;;;-1.80;99.90;;;;;;7333468;19;109096;-67
2024/01/17 02:11:01;;;;;;;;;;;-1.80;99.90;;;;;;7336775;19;111020;-67
2024/01/17 02:13:28;;;;;;;;;;;-1.90;99.90;;;;;;7335880;19;112224;-68
2024/01/17 02:15:55;;;;;;;;;;;-1.80;99.90;;;;;;7334838;19;110232;-68
2024/01/17 02:18:22;;;;;;;;;;;-1.80;99.90;;;;;;7335931;19;108726;-67
2024/01/17 02:20:50;;;;;;;;;;;-1.80;99.90;;;;;;7338318;19;108874;-68
2024/01/17 02:23:20;;;;;;;;;;;-1.80;99.90;;;;;;7330307;19;109805;-68
2024/01/17 02:25:49;;;;;;;;;;;-1.80;99.90;;;;;;7341420;19;112413;-67
2024/01/17 02:28:16;;;;;;;;;;;-1.80;99.90;;;;;;7334053;19;109681;-68
2024/01/17 02:30:43;;;;;;;;;;;-1.80;99.90;;;;;;7334819;19;110973;-68
2024/01/17 02:33:12;;;;;;;;;;;-1.80;99.90;;;;;;7329532;19;112415;-68
2024/01/17 02:35:39;;;;;;;;;;;-1.80;99.90;;;;;;7333913;19;109129;-68
2024/01/17 02:38:06;;;;;;;;;;;-1.80;99.90;;;;;;7336749;19;109181;-66
2024/01/17 02:40:34;;;;;;;;;;;-1.80;99.90;;;;;;7336862;19;109446;-68
2024/01/17 02:43:01;;;;;;;;;;;-1.80;99.90;;;;;;7334125;19;109425;-68
2024/01/17 02:45:28;;;;;;;;;;;-1.90;99.90;;;;;;7338406;19;108471;-68
2024/01/17 02:47:55;;;;;;;;;;;-1.90;99.90;;;;;;7335929;19;109209;-67
2024/01/17 02:50:22;;;;;;;;;;;-1.90;99.90;;;;;;7336357;19;108301;-67
2024/01/17 02:52:49;;;;;;;;;;;-1.80;99.90;;;;;;7333491;19;109104;-68
2024/01/17 02:55:17;;;;;;;;;;;-1.80;99.90;;;;;;7334357;19;109098;-69
2024/01/17 02:57:44;;;;;;;;;;;-1.80;99.90;;;;;;7329242;19;109262;-70
2024/01/17 03:00:11;;;;;;;;;;;-1.80;99.90;;;;;;7333826;19;109020;-72
2024/01/17 03:02:38;;;;;;;;;;;-1.80;99.90;;;;;;7333329;19;110261;-71
2024/01/17 03:05:06;;;;;;;;;;;-1.80;99.90;;;;;;7332592;19;108867;-68
2024/01/17 03:07:33;;;;;;;;;;;-1.80;99.90;;;;;;7339691;19;114616;-68
2024/01/17 03:10:00;;;;;;;;;;;-1.90;99.90;;;;;;7335077;19;108615;-68
2024/01/17 03:12:28;;;;;;;;;;;-1.90;99.90;;;;;;7336202;19;110587;-68
2024/01/17 03:14:55;;;;;;;;;;;-1.80;99.90;;;;;;7330938;19;110399;-68
2024/01/17 03:17:23;;;;;;;;;;;-1.80;99.90;;;;;;7331904;19;108853;-67
2024/01/17 03:19:50;;;;;;;;;;;-1.90;99.90;;;;;;7334725;19;108953;-67
2024/01/17 03:22:17;;;;;;;;;;;-1.80;99.90;;;;;;7332740;19;109748;-67
2024/01/17 03:24:47;;;;;;;;;;;-1.80;99.90;;;;;;7333219;19;108986;-68
2024/01/17 03:27:14;;;;;;;;;;;-1.90;99.90;;;;;;7333328;19;108525;-68
2024/01/17 03:29:41;;;;;;;;;;;-1.90;99.90;;;;;;7339430;19;109001;-68
2024/01/17 03:32:08;;;;;;;;;;;-1.90;99.90;;;;;;7331662;19;109328;-68
2024/01/17 03:34:35;;;;;;;;;;;-2.00;99.90;;;;;;7333898;19;111064;-68
2024/01/17 03:37:03;;;;;;;;;;;-2.00;99.90;;;;;;7333861;19;108920;-67
2024/01/17 03:39:34;;;;;;;;;;;-1.90;99.90;;;;;;7331954;19;109293;-68
2024/01/17 03:42:01;;;;;;;;;;;-1.90;99.90;;;;;;7335151;19;110188;-67
2024/01/17 03:44:28;;;;;;;;;;;-1.90;99.90;;;;;;7331015;19;108518;-67
2024/01/17 03:46:55;;;;;;;;;;;-1.90;99.90;;;;;;7333757;19;108582;-67
2024/01/17 03:49:22;;;;;;;;;;;-1.90;99.90;;;;;;7329165;19;109244;-68
2024/01/17 03:51:50;;;;;;;;;;;-1.90;99.90;;;;;;7339636;19;108372;-68
2024/01/17 03:54:18;;;;;;;;;;;-1.90;99.90;;;;;;7331793;19;109857;-67
2024/01/17 03:56:45;;;;;;;;;;;-1.90;99.90;;;;;;7331445;19;111077;-68
2024/01/17 03:59:12;;;;;;;;;;;-1.90;99.90;;;;;;7332735;19;109410;-68
2024/01/17 04:01:43;;;;;;;;;;;-1.90;99.90;;;;;;7330122;19;109658;-68
2024/01/17 04:04:11;;;;;;;;;;;-1.90;99.90;;;;;;7335356;19;108340;-67
2024/01/17 04:06:38;;;;;;;;;;;-1.90;99.90;;;;;;7327301;19;109376;-67
2024/01/17 04:09:05;;;;;;;;;;;-1.80;99.90;;;;;;7333387;19;109123;-68
2024/01/17 04:11:33;;;;;;;;;;;-1.90;99.90;;;;;;7330459;19;110181;-67
2024/01/17 04:14:00;;;;;;;;;;;-1.80;99.90;;;;;;7340253;19;108721;-67
2024/01/17 04:16:27;;;;;;;;;;;-1.90;99.90;;;;;;7330514;19;109218;-70
2024/01/17 04:18:54;;;;;;;;;;;-1.80;99.90;;;;;;7332083;19;109519;-67
2024/01/17 04:21:22;;;;;;;;;;;-1.80;99.90;;;;;;7330619;19;110778;-68
2024/01/17 04:23:49;;;;;;;;;;;-1.80;99.90;;;;;;7332284;19;108499;-68
2024/01/17 04:26:25;;;;;;;;;;;-1.80;99.90;;;;;;7329716;19;110509;-68
2024/01/17 04:28:53;;;;;;;;;;;-1.80;99.90;;;;;;7332657;19;109307;-67
2024/01/17 04:31:29;;;;;;;;;;;-1.70;99.90;;;;;;7333705;19;108381;-68
2024/01/17 04:33:57;;;;;;;;;;;-1.70;99.90;;;;;;7329458;19;109336;-68
2024/01/17 04:36:28;;;;;;;;;;;-1.70;99.90;;;;;;7337723;19;109257;-69
2024/01/17 04:38:56;;;;;;;;;;;-1.70;99.90;;;;;;7334396;19;109307;-67
2024/01/17 04:41:23;;;;;;;;;;;-1.70;99.90;;;;;;7327766;19;109201;-67
2024/01/17 04:43:51;;;;;;;;;;;-1.70;99.90;;;;;;7331923;19;112101;-68
2024/01/17 04:46:18;;;;;;;;;;;-1.70;99.90;;;;;;7329607;19;113855;-68
2024/01/17 04:48:45;;;;;;;;;;;-1.70;99.90;;;;;;7329839;19;110204;-68
2024/01/17 04:51:13;;;;;;;;;;;-1.70;99.90;;;;;;7332949;19;108788;-68
2024/01/17 04:53:41;;;;;;;;;;;-1.70;99.90;;;;;;7331921;19;109010;-69
2024/01/17 04:56:10;;;;;;;;;;;-1.70;99.90;;;;;;7331943;19;111101;-68
2024/01/17 04:58:37;;;;;;;;;;;-1.60;99.90;;;;;;7335974;19;108712;-68
2024/01/17 05:01:08;;;;;;;;;;;-1.60;99.90;;;;;;7329652;19;109290;-70
2024/01/17 05:03:36;;;;;;;;;;;-1.60;99.90;;;;;;7330094;19;108863;-68
2024/01/17 05:06:05;;;;;;;;;;;-1.60;99.90;;;;;;7328655;19;109668;-68
2024/01/17 05:08:32;;;;;;;;;;;-1.70;99.90;;;;;;7330220;19;109626;-68
2024/01/17 05:11:00;;;;;;;;;;;-1.70;99.90;;;;;;7331976;19;108795;-71
2024/01/17 05:13:28;;;;;;;;;;;-1.70;99.90;;;;;;7329100;19;110486;-68
2024/01/17 05:15:55;;;;;;;;;;;-1.70;99.90;;;;;;7329326;19;109246;-68
2024/01/17 05:18:22;;;;;;;;;;;-1.60;99.90;;;;;;7341051;19;109023;-67
2024/01/17 05:20:49;;;;;;;;;;;-1.60;99.90;;;;;;7337326;19;109857;-68
2024/01/17 05:23:17;;;;;;;;;;;-1.60;99.90;;;;;;7339757;19;109063;-67
2024/01/17 05:25:44;;;;;;;;;;;-1.50;99.90;;;;;;7336693;19;108935;-68
2024/01/17 05:28:11;;;;;;;;;;;-1.50;99.90;;;;;;7338929;19;109213;-67
2024/01/17 05:30:38;;;;;;;;;;;-1.50;99.90;;;;;;7335856;19;109187;-68
2024/01/17 05:33:05;;;;;;;;;;;-1.50;99.90;;;;;;7337426;19;109332;-73
2024/01/17 05:35:33;;;;;;;;;;;-1.50;99.90;;;;;;7331651;19;109656;-72
2024/01/17 05:38:00;;;;;;;;;;;-1.40;99.90;;;;;;7338242;19;109107;-69
2024/01/17 05:40:27;;;;;;;;;;;-1.40;99.90;;;;;;7342502;19;108606;-74
2024/01/17 05:42:55;;;;;;;;;;;-1.40;99.90;;;;;;7338537;19;109452;-68
2024/01/17 05:45:23;;;;;;;;;;;-1.40;99.90;;;;;;7333076;19;109618;-69
2024/01/17 05:47:50;;;;;;;;;;;-1.40;99.90;;;;;;7335689;19;109938;-68
2024/01/17 05:50:17;;;;;;;;;;;-1.40;99.90;;;;;;7336626;19;109090;-68
2024/01/17 05:52:50;;;;;;;;;;;-1.40;99.90;;;;;;7333722;19;109135;-68
2024/01/17 05:55:20;;;;;;;;;;;-1.40;99.90;;;;;;7334075;19;109992;-68
2024/01/17 05:57:47;;;;;;;;;;;-1.30;99.90;;;;;;7334282;19;108928;-68
2024/01/17 06:00:14;;;;;;;;;;;-1.30;99.90;;;;;;7332066;19;109526;-68
2024/01/17 06:02:42;;;;;;;;;;;-1.30;99.90;;;;;;7339840;19;110264;-69
2024/01/17 06:05:10;;;;;;;;;;;-1.30;99.90;;;;;;7336109;19;113488;-68
2024/01/17 06:07:40;;;;;;;;;;;-1.30;99.90;;;;;;7336271;19;110454;-68
2024/01/17 06:10:08;;;;;;;;;;;-1.30;99.90;;;;;;7337194;19;111344;-67
2024/01/17 06:12:35;;;;;;;;;;;-1.30;99.90;;;;;;7335139;19;108994;-68
2024/01/17 06:15:03;;;;;;;;;;;-1.20;99.90;;;;;;7335135;19;109701;-68
2024/01/17 06:17:30;;;;;;;;;;;-1.20;99.90;;;;;;7333341;19;110724;-68
2024/01/17 06:19:57;;;;;;;;;;;-1.20;99.90;;;;;;7337035;19;109376;-68
2024/01/17 06:22:25;;;;;;;;;;;-1.10;99.90;;;;;;7334746;19;112949;-68
2024/01/17 06:24:52;;;;;;;;;;;-1.10;99.90;;;;;;7342036;19;108708;-68
2024/01/17 06:27:19;;;;;;;;;;;-1.10;99.90;;;;;;7334237;19;110586;-68
2024/01/17 06:29:47;;;;;;;;;;;-1.10;99.90;;;;;;7336022;19;109254;-68
2024/01/17 06:32:14;;;;;;;;;;;-1.00;99.90;;;;;;7334709;19;108304;-68
2024/01/17 06:34:43;;;;;;;;;;;-1.00;99.90;;;;;;7332826;19;110086;-68
2024/01/17 06:37:10;;;;;;;;;;;-1.10;99.90;;;;;;7331806;19;108988;-67
2024/01/17 06:39:37;;;;;;;;;;;-1.10;99.90;;;;;;7334669;19;109065;-68
2024/01/17 06:42:04;;;;;;;;;;;-1.10;99.90;;;;;;7333711;19;109689;-67
2024/01/17 06:44:31;;;;;;;;;;;-1.00;99.90;;;;;;7333782;19;110479;-68
2024/01/17 06:46:59;;;;;;;;;;;-1.00;99.90;;;;;;7340266;19;109279;-72
2024/01/17 06:49:26;;;;;;;;;;;-1.00;99.90;;;;;;7333390;19;111240;-68
2024/01/17 06:51:55;;;;;;;;;;;-1.10;99.90;;;;;;7336146;19;108662;-67
2024/01/17 06:54:22;;;;;;;;;;;-1.10;99.90;;;;;;7332055;19;109900;-68
2024/01/17 06:56:49;;;;;;;;;;;-1.00;99.90;;;;;;7334984;19;108905;-68
2024/01/17 06:59:16;;;;;;;;;;;-1.00;99.90;;;;;;7333184;19;111521;-68
2024/01/17 07:01:43;;;;;;;;;;;-1.00;99.90;;;;;;7333825;19;113546;-68
2024/01/17 07:04:11;;;;;;;;;;;-1.00;99.90;;;;;;7334598;19;109555;-68
2024/01/17 07:06:38;;;;;;;;;;;-1.00;99.90;;;;;;7331622;19;108790;-69
2024/01/17 07:09:07;;;;;;;;;;;-1.00;99.90;;;;;;7338700;19;109957;-68
2024/01/17 07:11:34;;;;;;;;;;;-1.00;99.90;;;;;;7333015;19;108834;-68
2024/01/17 07:14:02;;;;;;;;;;;-1.00;99.90;;;;;;7333127;19;109246;-68
2024/01/17 07:16:30;;;;;;;;;;;-0.90;99.90;;;;;;7330689;19;109216;-67
2024/01/17 07:18:58;;;;;;;;;;;-0.90;99.90;;;;;;7333682;19;108863;-68
2024/01/17 07:21:26;;;;;;;;;;;-0.90;99.90;;;;;;7333224;19;109836;-67
2024/01/17 07:23:53;;;;;;;;;;;-0.80;99.90;;;;;;7334204;19;109261;-68
2024/01/17 07:26:21;;;;;;;;;;;-0.80;99.90;;;;;;7327300;19;109841;-68
2024/01/17 07:28:48;;;;;;;;;;;-0.90;99.90;;;;;;7338877;19;108814;-67
2024/01/17 07:31:16;;;;;;;;;;;-0.90;99.90;;;;;;7332728;19;109782;-68
2024/01/17 07:33:43;;;;;;;;;;;-0.80;99.90;;;;;;7333759;19;112638;-68
2024/01/17 07:36:10;;;;;;;;;;;-0.80;99.90;;;;;;7326809;19;108610;-68
2024/01/17 07:38:38;;;;;;;;;;;-0.80;99.90;;;;;;7335168;19;109177;-68
2024/01/17 07:41:05;;;;;;;;;;;-0.70;99.90;;;;;;7331979;19;112826;-68
2024/01/17 07:43:33;;;;;;;;;;;-0.70;99.90;;;;;;7332023;19;108454;-69
2024/01/17 07:46:01;;;;;;;;;;;-0.70;99.90;;;;;;7333498;19;109442;-69
2024/01/17 07:48:28;;;;;;;;;;;-0.70;99.90;;;;;;7330720;19;110239;-68
2024/01/17 07:50:56;;;;;;;;;;;-0.70;99.90;;;;;;7333923;19;108520;-70
2024/01/17 07:53:26;;;;;;;;;;;-0.80;99.90;;;;;;7330295;19;109123;-69
2024/01/17 07:55:55;;;;;;;;;;;-0.80;99.90;;;;;;7331768;19;111133;-70
2024/01/17 07:58:23;;;;;;;;;;;-0.90;99.90;;;;;;7330716;19;108685;-69
2024/01/17 08:00:50;;;;;;;;;;;-0.90;99.90;;;;;;7329339;19;109091;-69
2024/01/17 08:03:17;;;;;;;;;;;-0.80;99.90;;;;;;7330342;19;108406;-70
2024/01/17 08:05:45;;;;;;;;;;;-0.70;99.90;;;;;;7332474;19;108529;-71
2024/01/17 08:08:12;;;;;;;;;;;-0.70;99.90;;;;;;7328577;19;109261;-70
2024/01/17 08:10:39;;;;;;;;;;;-0.60;99.90;;;;;;7328579;19;109059;-67
2024/01/17 08:13:06;;;;;;;;;;;-0.60;99.90;;;;;;7337677;19;109310;-68
2024/01/17 08:15:34;;;;;;;;;;;-0.60;99.90;;;;;;7327649;19;109956;-69
2024/01/17 08:18:01;;;;;;;;;;;-0.60;99.90;;;;;;7332617;19;108727;-68
2024/01/17 08:20:28;;;;;;;;;;;-0.60;99.90;;;;;;7328982;19;109128;-68
2024/01/17 08:22:56;;;;;;;;;;;-0.50;99.90;;;;;;7328633;19;111280;-70
2024/01/17 08:25:25;;;;;;;;;;;-0.60;99.90;;;;;;7333033;19;109588;-70
2024/01/17 08:27:54;;;;;;;;;;;-0.60;99.90;;;;;;7331437;19;109800;-69
2024/01/17 08:30:21;;;;;;;;;;;-0.70;99.90;;;;;;7330418;19;108708;-69
2024/01/17 08:32:49;;;;;;;;;;;-0.80;99.90;;;;;;7328340;19;111295;-70
2024/01/17 08:35:16;;;;;;;;;;;-0.80;99.90;;;;;;7318461;19;109917;-70
2024/01/17 08:37:43;;;;;;;;;;;-0.80;99.90;;;;;;7328981;19;109154;-70
2024/01/17 08:40:11;;;;;;;;;;;-0.80;99.90;;;;;;7329440;19;110484;-69
2024/01/17 08:42:39;;;;;;;;;;;-0.90;99.90;;;;;;7329254;19;109377;-69
2024/01/17 08:45:06;;;;;;;;;;;-0.90;99.90;;;;;;7331343;19;108761;-70
2024/01/17 08:47:34;;;;;;;;;;;-0.80;99.90;;;;;;7331561;19;109088;-70
2024/01/17 08:50:01;;;;;;;;;;;-0.70;99.90;;;;;;7331636;19;109899;-69
2024/01/17 08:52:28;;;;;;;;;;;-0.70;99.90;;;;;;7333426;19;109036;-70
2024/01/17 08:54:55;;;;;;;;;;;-0.60;99.90;;;;;;7338908;19;111472;-69
2024/01/17 08:57:23;;;;;;;;;;;-0.60;99.90;;;;;;7340292;19;109074;-70
2024/01/17 08:59:50;;;;;;;;;;;-0.50;99.90;;;;;;7334928;19;110449;-70
2024/01/17 09:02:17;;;;;;;;;;;-0.50;99.90;;;;;;7337031;19;108970;-72
2024/01/17 09:04:44;;;;;;;;;;;-0.40;99.90;;;;;;7335255;19;109446;-70
2024/01/17 09:07:11;;;;;;;;;;;-0.40;99.90;;;;;;7335392;19;110300;-70
2024/01/17 09:09:38;;;;;;;;;;;-0.40;99.90;;;;;;7336188;19;110081;-69
2024/01/17 09:12:06;;;;;;;;;;;-0.40;99.90;;;;;;7337388;19;111124;-68
2024/01/17 09:14:36;;;;;;;;;;;-0.40;99.90;;;;;;7336878;19;109167;-69
2024/01/17 09:17:03;;;;;;;;;;;-0.40;99.90;;;;;;7338676;19;108979;-70
2024/01/17 09:19:31;;;;;;;;;;;-0.30;99.90;;;;;;7340888;19;108735;-70
2024/01/17 09:21:59;;;;;;;;;;;-0.40;99.90;;;;;;7340825;19;109176;-70
2024/01/17 09:24:26;;;;;;;;;;;-0.40;99.90;;;;;;7336627;19;109006;-70
2024/01/17 09:26:54;;;;;;;;;;;-0.40;99.90;;;;;;7338555;19;109169;-70
2024/01/17 09:29:21;;;;;;;;;;;-0.40;99.90;;;;;;7338533;19;108430;-71
2024/01/17 09:31:48;;;;;;;;;;;-0.40;99.90;;;;;;7343009;19;109658;-70
2024/01/17 09:34:15;;;;;;;;;;;-0.40;99.90;;;;;;7338485;19;109094;-71
2024/01/17 09:36:44;;;;;;;;;;;-0.40;99.90;;;;;;7337704;19;109158;-70
2024/01/17 09:39:11;;;;;;;;;;;-0.40;99.90;;;;;;7336229;19;109669;-71
2024/01/17 09:41:38;;;;;;;;;;;-0.30;99.90;;;;;;7333907;19;109924;-70
2024/01/17 09:44:06;;;;;;;;;;;-0.30;99.90;;;;;;7338433;19;109514;-70
2024/01/17 09:46:34;;;;;;;;;;;-0.20;99.90;;;;;;7334769;19;110176;-76
2024/01/17 09:49:02;;;;;;;;;;;-0.10;99.90;;;;;;7336617;19;108494;-77
2024/01/17 09:51:32;;;;;;;;;;;0.00;99.90;;;;;;7336366;19;109097;-77
2024/01/17 09:54:04;;;;;;;;;;;0.00;99.90;;;;;;7338724;19;110710;-71
2024/01/17 09:56:33;;;;;;;;;;;0.10;99.90;;;;;;7337368;19;109866;-70
2024/01/17 09:59:14;;;;;;;;;;;0.10;99.90;;;;;;7333254;19;109130;-69
2024/01/17 10:01:43;;;;;;;;;;;0.10;99.90;;;;;;7338684;19;110309;-70
2024/01/17 10:04:14;;;;;;;;;;;0.10;99.90;;;;;;7341498;19;109589;-70
2024/01/17 10:06:42;;;;;;;;;;;0.20;99.90;;;;;;7334544;19;109372;-69
2024/01/17 10:09:10;;;;;;;;;;;0.20;99.90;;;;;;7335770;19;108421;-70
2024/01/17 10:11:38;;;;;;;;;;;0.20;99.90;;;;;;7332866;19;108420;-69
2024/01/17 10:14:07;;;;;;;;;;;0.30;99.90;;;;;;7334576;19;109737;-70
2024/01/17 10:16:37;;;;;;;;;;;0.30;99.90;;;;;;7334206;19;108813;-69
2024/01/17 10:19:07;;;;;;;;;;;0.40;99.90;;;;;;7336325;19;109072;-70
2024/01/17 10:21:35;;;;;;;;;;;0.40;99.90;;;;;;7335359;19;111245;-70
2024/01/17 10:24:05;;;;;;;;;;;0.40;99.90;;;;;;7340563;19;109137;-70
2024/01/17 10:26:35;;;;;;;;;;;0.50;99.90;;;;;;7333517;19;110514;-74
2024/01/17 10:29:03;;;;;;;;;;;0.50;99.90;;;;;;7336582;19;108758;-75
2024/01/17 10:31:31;;;;;;;;;;;0.50;99.90;;;;;;7335247;19;108443;-74
2024/01/17 10:33:58;;;;;;;;;;;0.60;99.90;;;;;;7337831;19;110166;-73
2024/01/17 10:36:26;;;;;;;;;;;0.60;99.90;;;;;;7336898;19;108573;-70
2024/01/17 10:39:00;;;;;;;;;;;0.70;99.90;;;;;;7339017;19;110151;-70
2024/01/17 10:41:27;;;;;;;;;;;0.70;99.90;;;;;;7335984;19;109760;-70
2024/01/17 10:43:58;;;;;;;;;;;0.80;99.90;;;;;;7337580;19;108595;-70
2024/01/17 10:46:26;;;;;;;;;;;0.80;99.90;;;;;;7340226;19;109189;-70
2024/01/17 10:48:53;;;;;;;;;;;0.90;99.90;;;;;;7334830;19;114489;-70
2024/01/17 10:51:22;;;;;;;;;;;0.90;99.90;;;;;;7338481;19;110502;-70
2024/01/17 10:53:56;;;;;;;;;;;0.90;99.90;;;;;;7336245;19;109425;-70
2024/01/17 10:56:26;;;;;;;;;;;0.90;99.90;;;;;;7336155;19;108332;-70
2024/01/17 10:58:53;;;;;;;;;;;0.90;99.90;;;;;;7335156;19;109544;-70
2024/01/17 11:01:25;;;;;;;;;;;0.90;99.90;;;;;;7335629;19;110480;-70
2024/01/17 11:03:53;;;;;;;;;;;0.90;99.90;;;;;;7337063;19;108581;-70
2024/01/17 11:06:21;;;;;;;;;;;1.00;99.90;;;;;;7335473;19;109902;-70
2024/01/17 11:08:49;;;;;;;;;;;0.90;99.90;;;;;;7340383;19;109698;-69
2024/01/17 11:11:16;;;;;;;;;;;1.00;99.90;;;;;;7333662;19;109106;-69
2024/01/17 11:13:44;;;;;;;;;;;1.00;99.90;;;;;;7337525;19;109148;-70
2024/01/17 11:16:13;;;;;;;;;;;1.00;99.90;;;;;;7331060;19;109127;-70
2024/01/17 11:18:42;;;;;;;;;;;1.00;99.90;;;;;;7335023;19;109685;-78
2024/01/17 11:21:09;;;;;;;;;;;1.10;99.90;;;;;;7330824;19;109686;-78
2024/01/17 11:24:12;;;;;;;;;;;1.10;99.90;;;;;;7336354;19;109276;-82
2024/01/17 11:26:48;;;;;;;;;;;1.10;99.90;;;;;;7322909;19;109580;-75
2024/01/17 11:29:25;;;;;;;;;;;1.20;99.90;;;;;;7330373;19;111102;-74
2024/01/17 11:32:07;;;;;;;;;;;1.20;99.90;;;;;;7331781;19;112477;-75
2024/01/17 11:34:34;;;;;;;;;;;1.20;99.90;;;;;;7326442;19;110110;-73
2024/01/17 11:37:04;;;;;;;;;;;1.20;99.90;;;;;;7329560;19;109168;-74
2024/01/17 11:39:31;;;;;;;;;;;1.30;99.90;;;;;;7330746;19;109609;-73
2024/01/17 11:42:01;;;;;;;;;;;1.30;99.90;;;;;;7331761;19;110783;-73
2024/01/17 11:44:28;;;;;;;;;;;1.30;99.90;;;;;;7325121;19;109833;-74
2024/01/17 11:46:57;;;;;;;;;;;1.30;99.90;;;;;;7334522;19;109343;-74
2024/01/17 11:49:38;;;;;;;;;;;1.30;99.90;;;;;;7331504;19;110559;-73
2024/01/17 11:52:08;;;;;;;;;;;1.40;99.90;;;;;;7336581;19;108658;-73
2024/01/17 11:54:38;;;;;;;;;;;1.40;99.90;;;;;;7332522;19;110493;-73
2024/01/17 11:57:08;;;;;;;;;;;1.40;99.90;;;;;;7328742;19;109226;-73
2024/01/17 11:59:39;;;;;;;;;;;1.40;99.90;;;;;;7332180;19;109095;-74
2024/01/17 12:02:06;;;;;;;;;;;1.40;99.90;;;;;;7330746;19;110725;-73
2024/01/17 12:04:33;;;;;;;;;;;1.40;99.90;;;;;;7334178;19;109999;-73
2024/01/17 12:07:01;;;;;;;;;;;1.40;99.90;;;;;;7335454;19;109226;-73
2024/01/17 12:09:31;;;;;;;;;;;1.30;99.90;;;;;;7334469;19;109147;-73
2024/01/17 12:11:59;;;;;;;;;;;1.20;99.90;;;;;;7333463;19;109508;-72
2024/01/17 12:14:27;;;;;;;;;;;1.10;99.90;;;;;;7340617;19;110893;-72
2024/01/17 12:16:54;;;;;;;;;;;1.10;99.90;;;;;;7339268;19;109717;-73
2024/01/17 12:19:21;;;;;;;;;;;1.10;99.90;;;;;;7333504;19;109403;-73
2024/01/17 12:21:49;;;;;;;;;;;1.20;99.90;;;;;;7335278;19;109946;-73
2024/01/17 12:24:19;;;;;;;;;;;1.20;99.90;;;;;;7335184;19;109131;-73
2024/01/17 12:27:04;;;;;;;;;;;1.20;99.90;;;;;;7337811;19;111080;-74
2024/01/17 12:29:36;;;;;;;;;;;1.30;99.90;;;;;;7337010;19;113485;-73
2024/01/17 12:32:03;;;;;;;;;;;1.30;99.90;;;;;;7339728;19;111250;-77
2024/01/17 12:34:31;;;;;;;;;;;1.30;99.90;;;;;;7341177;19;110501;-77
2024/01/17 12:36:58;;;;;;;;;;;1.40;99.90;;;;;;7327412;19;110440;-74
2024/01/17 12:39:25;;;;;;;;;;;1.40;99.90;;;;;;7330405;19;109718;-76
2024/01/17 12:41:56;;;;;;;;;;;1.40;99.90;;;;;;7340602;19;110073;-74
2024/01/17 12:44:23;;;;;;;;;;;1.20;99.90;;;;;;7343415;19;108915;-76
2024/01/17 12:46:50;;;;;;;;;;;1.20;99.90;;;;;;7342022;19;111558;-73
2024/01/17 12:49:19;;;;;;;;;;;1.10;99.90;;;;;;7341034;19;109430;-74
2024/01/17 12:51:50;;;;;;;;;;;1.10;99.90;;;;;;7340970;19;108620;-78
2024/01/17 12:54:19;;;;;;;;;;;1.00;99.90;;;;;;7343300;19;109524;-77
2024/01/17 12:56:47;;;;;;;;;;;1.00;99.90;;;;;;7339518;19;110502;-77
2024/01/17 12:59:17;;;;;;;;;;;1.00;99.90;;;;;;7345853;19;108513;-80
2024/01/17 13:01:45;;;;;;;;;;;1.00;99.90;;;;;;7343441;19;110221;-74
2024/01/17 13:04:12;;;;;;;;;;;1.00;99.90;;;;;;7341231;19;108817;-73
2024/01/17 13:06:43;;;;;;;;;;;0.90;99.90;;;;;;7337676;19;108899;-74
2024/01/17 13:09:17;;;;;;;;;;;0.90;99.90;;;;;;7341565;19;110024;-73
2024/01/17 13:11:50;;;;;;;;;;;0.90;99.90;;;;;;7343733;19;109062;-74
2024/01/17 13:14:17;;;;;;;;;;;0.90;99.90;;;;;;7335029;19;108896;-74
2024/01/17 13:16:48;;;;;;;;;;;0.90;99.90;;;;;;7341211;19;110205;-73
2024/01/17 13:19:15;;;;;;;;;;;1.00;99.90;;;;;;7336623;19;108386;-73
2024/01/17 13:21:49;;;;;;;;;;;1.00;99.90;;;;;;7345487;19;109053;-73
2024/01/17 13:24:16;;;;;;;;;;;1.00;99.90;;;;;;7341588;19;108528;-74
2024/01/17 13:26:43;;;;;;;;;;;1.00;99.90;;;;;;7338240;19;109286;-74
2024/01/17 13:29:12;;;;;;;;;;;1.00;99.90;;;;;;7339826;19;109218;-74
2024/01/17 13:31:43;;;;;;;;;;;1.00;99.90;;;;;;7342104;19;108839;-75
2024/01/17 13:34:13;;;;;;;;;;;1.00;99.90;;;;;;7339820;19;111619;-74
2024/01/17 13:36:41;;;;;;;;;;;1.00;99.90;;;;;;7339356;19;113102;-73
2024/01/17 13:39:09;;;;;;;;;;;1.00;99.90;;;;;;7339757;19;108733;-74
2024/01/17 13:41:42;;;;;;;;;;;1.00;99.90;;;;;;7342407;19;109082;-73
2024/01/17 13:44:13;;;;;;;;;;;1.00;99.90;;;;;;7338170;19;108836;-73
2024/01/17 13:46:43;;;;;;;;;;;1.00;99.90;;;;;;7336571;19;109449;-73
2024/01/17 13:49:12;;;;;;;;;;;1.00;99.90;;;;;;7339164;19;110335;-74
2024/01/17 13:51:43;;;;;;;;;;;1.00;99.90;;;;;;7339761;19;109040;-74
2024/01/17 13:54:18;;;;;;;;;;;0.90;99.90;;;;;;7335971;19;108554;-74
2024/01/17 13:56:45;;;;;;;;;;;0.90;99.90;;;;;;7336492;19;110172;-74
2024/01/17 13:59:13;;;;;;;;;;;0.80;99.90;;;;;;7338704;19;108981;-74
2024/01/17 14:01:40;;;;;;;;;;;0.80;99.90;;;;;;7336628;19;109156;-74
2024/01/17 14:04:09;;;;;;;;;;;0.90;99.90;;;;;;7342700;19;110175;-74
2024/01/17 14:06:36;;;;;;;;;;;0.80;99.90;;;;;;7336311;19;109759;-74
2024/01/17 14:09:06;;;;;;;;;;;0.80;99.90;;;;;;7335548;19;112493;-75
2024/01/17 14:11:38;;;;;;;;;;;0.80;99.90;;;;;;7330596;19;109855;-74
2024/01/17 14:14:10;;;;;;;;;;;0.80;99.90;;;;;;7334903;19;109444;-77